Time;durP1;ratioP1;P1;durP2;ratioP2;P2;SDS_P1;SDS_P2;PMS_P1;PMS_P2;Temp;Humidity;BMP_temperature;BMP_pressure;BME280_temperature;BME280_humidity;BME280_pressure;Samples;Min_cycle;Max_cycle;Signal;HPM_P1;HPM_P2
2022/05/13 00:01:34;;;;;;;3.05;2.03;;;;;;;;;;5043035;28;20191;-76
2022/05/13 00:04:01;;;;;;;2.05;1.70;;;;;;;;;;5049123;28;20191;-76
2022/05/13 00:06:29;;;;;;;2.53;1.60;;;;;;;;;;5045996;28;20206;-77
2022/05/13 00:08:56;;;;;;;3.78;1.85;;;;;;;;;;5045490;28;20218;-78
2022/05/13 00:11:23;;;;;;;4.32;2.10;;;;;;;;;;5046784;28;20225;-77
2022/05/13 00:13:51;;;;;;;2.10;1.85;;;;;;;;;;5049600;28;20203;-77
2022/05/13 00:16:18;;;;;;;1.83;1.60;;;;;;;;;;5040813;28;20567;-77
2022/05/13 00:18:45;;;;;;;3.10;2.00;;;;;;;;;;5041876;28;20206;-78
2022/05/13 00:21:12;;;;;;;2.08;1.88;;;;;;;;;;5048174;28;20199;-77
2022/05/13 00:23:40;;;;;;;2.20;1.80;;;;;;;;;;5048291;28;20582;-77
2022/05/13 00:26:07;;;;;;;2.72;2.00;;;;;;;;;;5041047;28;20210;-77
2022/05/13 00:28:34;;;;;;;2.13;2.00;;;;;;;;;;5045158;28;20198;-77
2022/05/13 00:31:04;;;;;;;2.13;1.70;;;;;;;;;;5044268;28;20219;-78
2022/05/13 00:33:32;;;;;;;2.85;1.90;;;;;;;;;;5049831;28;20286;-78
2022/05/13 00:35:59;;;;;;;3.08;1.85;;;;;;;;;;5042963;28;20280;-78
2022/05/13 00:38:26;;;;;;;2.47;1.85;;;;;;;;;;5044148;28;20662;-77
2022/05/13 00:40:55;;;;;;;2.47;1.90;;;;;;;;;;5042991;28;20199;-78
2022/05/13 00:43:40;;;;;;;2.92;1.85;;;;;;;;;;5050320;28;20289;-77
2022/05/13 00:46:07;;;;;;;4.57;2.10;;;;;;;;;;5045762;28;20202;-77
2022/05/13 00:48:34;;;;;;;2.42;2.20;;;;;;;;;;5048891;28;20195;-78
2022/05/13 00:51:01;;;;;;;3.58;2.30;;;;;;;;;;5040942;28;20226;-78
2022/05/13 00:53:28;;;;;;;6.03;2.50;;;;;;;;;;5046416;28;20559;-77
2022/05/13 00:55:57;;;;;;;2.05;1.85;;;;;;;;;;5046729;28;20196;-77
2022/05/13 00:58:24;;;;;;;2.70;2.15;;;;;;;;;;5050425;28;20198;-78
2022/05/13 01:00:51;;;;;;;2.70;2.20;;;;;;;;;;5039934;28;20650;-79
2022/05/13 01:03:19;;;;;;;3.22;2.53;;;;;;;;;;5050708;28;20214;-78
2022/05/13 01:05:47;;;;;;;2.55;2.35;;;;;;;;;;5041766;28;20302;-77
2022/05/13 01:08:14;;;;;;;3.13;2.35;;;;;;;;;;5042654;28;20207;-77
2022/05/13 01:10:44;;;;;;;3.70;2.40;;;;;;;;;;5043784;28;20215;-77
2022/05/13 01:13:14;;;;;;;3.97;2.45;;;;;;;;;;5050803;28;20241;-78
2022/05/13 01:15:42;;;;;;;2.33;2.13;;;;;;;;;;5044448;28;20222;-77
2022/05/13 01:18:10;;;;;;;3.35;2.55;;;;;;;;;;5047844;28;20192;-77
2022/05/13 01:20:38;;;;;;;4.53;2.38;;;;;;;;;;5038131;28;20286;-77
2022/05/13 01:23:09;;;;;;;2.78;2.47;;;;;;;;;;5045491;28;20641;-76
2022/05/13 01:25:39;;;;;;;2.60;2.40;;;;;;;;;;5045134;28;20203;-77
2022/05/13 01:28:08;;;;;;;4.00;3.60;;;;;;;;;;5042384;28;20562;-78
2022/05/13 01:30:40;;;;;;;4.35;2.22;;;;;;;;;;5046299;28;20219;-78
2022/05/13 01:33:07;;;;;;;2.63;2.25;;;;;;;;;;5043063;28;20195;-78
2022/05/13 01:35:34;;;;;;;2.13;1.92;;;;;;;;;;5044420;28;20195;-78
2022/05/13 01:38:01;;;;;;;4.60;3.00;;;;;;;;;;5048699;28;20203;-77
2022/05/13 01:40:30;;;;;;;2.85;2.30;;;;;;;;;;5039183;28;20291;-78
2022/05/13 01:42:57;;;;;;;4.28;2.50;;;;;;;;;;5041871;28;20686;-78
2022/05/13 01:45:24;;;;;;;3.97;1.95;;;;;;;;;;5051078;28;21968;-78
2022/05/13 01:47:51;;;;;;;2.47;2.28;;;;;;;;;;5053626;28;20673;-78
2022/05/13 01:50:18;;;;;;;2.97;2.22;;;;;;;;;;5045695;28;20555;-79
2022/05/13 01:52:46;;;;;;;4.38;2.88;;;;;;;;;;5048764;28;20204;-78
2022/05/13 01:55:13;;;;;;;2.60;2.40;;;;;;;;;;5050858;28;20290;-79
2022/05/13 01:57:41;;;;;;;2.20;2.00;;;;;;;;;;5051660;28;20214;-77
2022/05/13 02:00:08;;;;;;;2.53;2.25;;;;;;;;;;5049964;28;20211;-78
2022/05/13 02:03:44;;;;;;;2.05;1.83;;;;;;;;;;5051885;28;20210;-76
2022/05/13 02:05:22;;;;;;;3.55;2.15;;;;;;;;;;5046911;28;20294;-78
2022/05/13 02:07:49;;;;;;;2.70;2.50;;;;;;;;;;5042218;28;20655;-77
2022/05/13 02:10:16;;;;;;;3.88;2.35;;;;;;;;;;5055522;28;20201;-76
2022/05/13 02:12:44;;;;;;;5.53;2.58;;;;;;;;;;5054957;28;20442;-77
2022/05/13 02:15:12;;;;;;;3.15;2.50;;;;;;;;;;5051538;28;20195;-77
2022/05/13 02:17:39;;;;;;;3.33;2.08;;;;;;;;;;5043142;28;20218;-77
2022/05/13 02:20:07;;;;;;;4.82;2.80;;;;;;;;;;5048729;28;20211;-76
2022/05/13 02:22:34;;;;;;;3.50;2.55;;;;;;;;;;5043467;28;20218;-77
2022/05/13 02:25:01;;;;;;;2.78;2.42;;;;;;;;;;5045493;28;20207;-75
2022/05/13 02:27:29;;;;;;;3.10;2.13;;;;;;;;;;5045682;28;20207;-76
2022/05/13 02:29:57;;;;;;;2.78;1.95;;;;;;;;;;5035729;28;20195;-77
2022/05/13 02:32:24;;;;;;;2.63;2.42;;;;;;;;;;5041092;28;20215;-77
2022/05/13 02:34:51;;;;;;;2.85;1.95;;;;;;;;;;5051432;28;20207;-76
2022/05/13 02:37:18;;;;;;;2.58;2.20;;;;;;;;;;5047864;28;20195;-77
2022/05/13 02:39:45;;;;;;;4.35;2.05;;;;;;;;;;5050286;28;20488;-77
2022/05/13 02:42:14;;;;;;;3.63;2.58;;;;;;;;;;5052656;28;20693;-77
2022/05/13 02:44:41;;;;;;;3.92;2.47;;;;;;;;;;5048148;28;20195;-77
2022/05/13 02:47:10;;;;;;;2.80;1.83;;;;;;;;;;5034817;28;20646;-77
2022/05/13 02:49:37;;;;;;;2.95;2.15;;;;;;;;;;5047000;28;20446;-79
2022/05/13 02:52:04;;;;;;;4.05;2.03;;;;;;;;;;5043100;28;20214;-79
2022/05/13 02:54:32;;;;;;;3.72;2.30;;;;;;;;;;5041720;28;20223;-79
2022/05/13 02:56:59;;;;;;;3.03;2.70;;;;;;;;;;5049879;28;20680;-79
2022/05/13 02:59:26;;;;;;;4.32;2.65;;;;;;;;;;5049505;28;20195;-79
2022/05/13 03:01:54;;;;;;;3.60;2.42;;;;;;;;;;5046409;28;20202;-79
2022/05/13 03:04:22;;;;;;;2.50;1.85;;;;;;;;;;5047996;28;20199;-79
2022/05/13 03:06:50;;;;;;;3.00;1.70;;;;;;;;;;5041899;28;20207;-79
2022/05/13 03:09:17;;;;;;;2.42;1.70;;;;;;;;;;5049601;28;20662;-80
2022/05/13 03:11:44;;;;;;;2.67;1.90;;;;;;;;;;5050691;28;20678;-79
2022/05/13 03:14:11;;;;;;;2.00;1.77;;;;;;;;;;5048084;28;20259;-79
2022/05/13 03:16:38;;;;;;;4.10;2.42;;;;;;;;;;5041050;28;20199;-80
2022/05/13 03:19:05;;;;;;;3.05;1.92;;;;;;;;;;5048812;28;20654;-79
2022/05/13 03:21:34;;;;;;;1.77;1.65;;;;;;;;;;5044798;28;20235;-79
2022/05/13 03:24:01;;;;;;;2.85;2.65;;;;;;;;;;5045581;28;20203;-79
2022/05/13 03:26:28;;;;;;;5.13;2.28;;;;;;;;;;5045956;28;20187;-79
2022/05/13 03:28:55;;;;;;;2.20;1.88;;;;;;;;;;5051091;28;20210;-79
2022/05/13 03:31:22;;;;;;;3.13;1.90;;;;;;;;;;5042494;28;20211;-78
2022/05/13 03:33:49;;;;;;;3.00;1.77;;;;;;;;;;5049833;28;20269;-79
2022/05/13 03:36:16;;;;;;;3.65;1.75;;;;;;;;;;5047682;28;20199;-79
2022/05/13 03:38:45;;;;;;;2.80;2.38;;;;;;;;;;5042262;28;20681;-79
2022/05/13 03:41:12;;;;;;;3.35;1.92;;;;;;;;;;5050340;28;20219;-79
2022/05/13 03:43:39;;;;;;;3.38;2.17;;;;;;;;;;5045133;28;20202;-78
2022/05/13 03:46:06;;;;;;;3.47;1.80;;;;;;;;;;5044233;28;20195;-78
2022/05/13 03:48:33;;;;;;;2.15;1.77;;;;;;;;;;5050287;28;20228;-78
2022/05/13 03:51:00;;;;;;;2.08;1.80;;;;;;;;;;5041561;28;20195;-79
2022/05/13 03:53:27;;;;;;;3.97;1.77;;;;;;;;;;5038354;28;20198;-79
2022/05/13 03:55:56;;;;;;;3.65;1.90;;;;;;;;;;5046510;28;20665;-79
2022/05/13 03:58:23;;;;;;;4.32;2.25;;;;;;;;;;5050370;28;20206;-78
2022/05/13 04:00:51;;;;;;;2.75;1.60;;;;;;;;;;5045470;28;20203;-78
2022/05/13 04:03:19;;;;;;;1.85;1.70;;;;;;;;;;5037301;28;20290;-79
2022/05/13 04:11:17;;;;;;;2.78;1.65;;;;;;;;;;5044874;28;20256;-79
2022/05/13 04:16:29;;;;;;;3.72;1.65;;;;;;;;;;5040558;28;20236;-78
2022/05/13 04:18:58;;;;;;;2.53;1.90;;;;;;;;;;5048431;28;20206;-79
2022/05/13 04:21:26;;;;;;;2.85;1.90;;;;;;;;;;5042437;28;20194;-79
2022/05/13 04:23:54;;;;;;;2.75;1.80;;;;;;;;;;5039577;28;20198;-79
2022/05/13 04:26:22;;;;;;;1.60;1.33;;;;;;;;;;5049433;28;20518;-79
2022/05/13 04:28:51;;;;;;;4.30;1.70;;;;;;;;;;5049954;28;20582;-79
2022/05/13 04:31:20;;;;;;;2.55;1.40;;;;;;;;;;5042602;28;20199;-80
2022/05/13 04:33:48;;;;;;;4.10;2.88;;;;;;;;;;5047604;28;20208;-80
2022/05/13 04:36:16;;;;;;;4.70;1.60;;;;;;;;;;5046419;28;20210;-79
2022/05/13 04:38:44;;;;;;;2.70;1.50;;;;;;;;;;5044126;28;20648;-80
2022/05/13 04:43:58;;;;;;;2.28;1.60;;;;;;;;;;5039920;28;20323;-79
2022/05/13 04:46:25;;;;;;;2.35;1.20;;;;;;;;;;5046187;28;20574;-79
2022/05/13 04:48:53;;;;;;;1.60;1.50;;;;;;;;;;5048338;28;20210;-80
2022/05/13 04:51:20;;;;;;;5.43;2.28;;;;;;;;;;5044957;28;20417;-79
2022/05/13 04:53:48;;;;;;;3.85;1.80;;;;;;;;;;5043116;28;20681;-80
2022/05/13 04:56:15;;;;;;;4.30;1.70;;;;;;;;;;5047350;28;20301;-79
2022/05/13 04:58:42;;;;;;;2.20;1.70;;;;;;;;;;5044056;28;20217;-79
2022/05/13 05:01:12;;;;;;;2.83;1.58;;;;;;;;;;5043292;28;20197;-79
2022/05/13 05:03:40;;;;;;;2.65;2.28;;;;;;;;;;5050131;28;20237;-79
2022/05/13 05:06:08;;;;;;;3.10;2.00;;;;;;;;;;5043764;28;20292;-80
2022/05/13 05:08:36;;;;;;;1.40;1.30;;;;;;;;;;5049340;28;20547;-79
2022/05/13 05:11:03;;;;;;;4.28;1.90;;;;;;;;;;5041821;28;20229;-79
2022/05/13 05:13:31;;;;;;;5.63;1.50;;;;;;;;;;5045786;28;20226;-79
2022/05/13 05:15:59;;;;;;;2.55;1.42;;;;;;;;;;5041291;28;20201;-79
2022/05/13 05:18:28;;;;;;;2.78;1.60;;;;;;;;;;5051258;28;20230;-79
2022/05/13 05:20:55;;;;;;;2.67;1.77;;;;;;;;;;5046915;28;20707;-79
2022/05/13 05:23:23;;;;;;;3.30;1.50;;;;;;;;;;5050843;28;20281;-79
2022/05/13 05:25:51;;;;;;;2.15;1.65;;;;;;;;;;5048192;28;20585;-80
2022/05/13 05:28:18;;;;;;;2.65;1.55;;;;;;;;;;5051316;28;20198;-80
2022/05/13 05:30:45;;;;;;;4.90;1.73;;;;;;;;;;5049163;28;20198;-80
2022/05/13 05:33:13;;;;;;;3.58;1.48;;;;;;;;;;5050493;28;20228;-80
2022/05/13 05:35:41;;;;;;;4.15;1.45;;;;;;;;;;5047692;28;20193;-80
2022/05/13 05:38:08;;;;;;;5.65;2.35;;;;;;;;;;5050584;28;20217;-80
2022/05/13 05:40:36;;;;;;;2.10;1.58;;;;;;;;;;5048137;28;20683;-79
2022/05/13 05:43:04;;;;;;;2.47;1.48;;;;;;;;;;5047069;28;20694;-79
2022/05/13 05:45:31;;;;;;;3.50;1.73;;;;;;;;;;5049375;28;20689;-78
2022/05/13 05:47:58;;;;;;;3.85;1.55;;;;;;;;;;5045155;28;20201;-78
2022/05/13 05:50:25;;;;;;;2.60;1.35;;;;;;;;;;5047384;28;20412;-79
2022/05/13 05:52:54;;;;;;;2.53;1.52;;;;;;;;;;5050516;28;20215;-79
2022/05/13 05:58:07;;;;;;;2.97;1.77;;;;;;;;;;5048767;28;20229;-79
2022/05/13 06:00:35;;;;;;;2.58;1.52;;;;;;;;;;5048860;28;20210;-80
2022/05/13 06:03:03;;;;;;;3.65;1.67;;;;;;;;;;5042902;28;20195;-79
2022/05/13 06:05:30;;;;;;;3.53;1.85;;;;;;;;;;5044368;28;20202;-79
2022/05/13 06:08:00;;;;;;;6.38;2.47;;;;;;;;;;5050798;28;20221;-80
2022/05/13 06:10:27;;;;;;;6.68;2.00;;;;;;;;;;5047852;28;20206;-79
2022/05/13 06:12:55;;;;;;;2.90;1.88;;;;;;;;;;5046229;28;20720;-77
2022/05/13 06:15:22;;;;;;;3.90;1.70;;;;;;;;;;5045561;28;20210;-78
2022/05/13 06:17:50;;;;;;;4.80;2.55;;;;;;;;;;5046967;28;20207;-78
2022/05/13 06:20:18;;;;;;;7.60;2.70;;;;;;;;;;5046099;28;20202;-79
2022/05/13 06:22:45;;;;;;;7.03;3.55;;;;;;;;;;5050229;28;20205;-78
2022/05/13 06:25:15;;;;;;;10.82;2.08;;;;;;;;;;5048114;28;20565;-79
2022/05/13 06:27:42;;;;;;;4.60;2.65;;;;;;;;;;5051387;28;20201;-79
2022/05/13 06:30:12;;;;;;;5.15;2.70;;;;;;;;;;5052419;28;20205;-79
2022/05/13 06:32:39;;;;;;;3.90;1.85;;;;;;;;;;5050786;28;20590;-79
2022/05/13 06:35:07;;;;;;;3.42;2.20;;;;;;;;;;5050176;28;20595;-79
2022/05/13 06:37:34;;;;;;;3.50;2.00;;;;;;;;;;5042506;28;20242;-78
2022/05/13 06:40:01;;;;;;;10.60;2.35;;;;;;;;;;5043961;28;20202;-79
2022/05/13 06:42:30;;;;;;;4.05;2.42;;;;;;;;;;5050147;28;20232;-79
2022/05/13 06:44:57;;;;;;;3.42;2.67;;;;;;;;;;5049880;28;20209;-79
2022/05/13 06:47:24;;;;;;;3.92;1.90;;;;;;;;;;5047395;28;20244;-79
2022/05/13 06:49:51;;;;;;;2.97;1.85;;;;;;;;;;5050798;28;20297;-79
2022/05/13 06:52:18;;;;;;;3.25;1.90;;;;;;;;;;5049094;28;20214;-79
2022/05/13 06:54:46;;;;;;;2.75;1.55;;;;;;;;;;5048304;28;20199;-79
2022/05/13 06:57:14;;;;;;;5.65;2.20;;;;;;;;;;5046449;28;20203;-87
2022/05/13 06:59:43;;;;;;;7.68;3.22;;;;;;;;;;5047251;28;20202;-81
2022/05/13 07:02:17;;;;;;;5.93;2.65;;;;;;;;;;5043200;28;20687;-80
2022/05/13 07:04:44;;;;;;;7.35;2.25;;;;;;;;;;5039430;28;20195;-79
2022/05/13 07:07:11;;;;;;;9.05;2.50;;;;;;;;;;5045767;28;20195;-79
2022/05/13 07:09:39;;;;;;;7.28;2.40;;;;;;;;;;5041433;28;20879;-79
2022/05/13 07:12:06;;;;;;;4.05;1.75;;;;;;;;;;5037304;28;20536;-80
2022/05/13 07:14:34;;;;;;;5.10;1.80;;;;;;;;;;5041734;28;20225;-80
2022/05/13 07:17:02;;;;;;;2.78;1.40;;;;;;;;;;5043353;28;20286;-78
2022/05/13 07:19:30;;;;;;;4.55;2.30;;;;;;;;;;5045300;28;20198;-83
2022/05/13 07:21:57;;;;;;;5.90;1.90;;;;;;;;;;5041740;28;20211;-82
2022/05/13 07:24:24;;;;;;;4.10;2.13;;;;;;;;;;5041742;28;20195;-79
2022/05/13 07:26:54;;;;;;;6.85;1.83;;;;;;;;;;5051790;28;20253;-81
2022/05/13 07:29:21;;;;;;;4.38;2.17;;;;;;;;;;5041967;28;20559;-80
2022/05/13 07:31:48;;;;;;;6.13;2.63;;;;;;;;;;5045169;28;20217;-81
2022/05/13 07:34:18;;;;;;;6.38;1.60;;;;;;;;;;5048639;28;20223;-81
2022/05/13 07:36:46;;;;;;;3.33;1.52;;;;;;;;;;5049642;28;20203;-79
2022/05/13 07:41:58;;;;;;;4.50;1.85;;;;;;;;;;5042052;28;20210;-80
2022/05/13 07:44:25;;;;;;;4.05;1.83;;;;;;;;;;5035390;28;20200;-80
2022/05/13 07:46:52;;;;;;;3.10;1.30;;;;;;;;;;5044703;28;20248;-81
2022/05/13 07:49:21;;;;;;;3.60;2.15;;;;;;;;;;5040660;28;20222;-81
2022/05/13 07:51:48;;;;;;;1.90;1.35;;;;;;;;;;5045743;28;20206;-81
2022/05/13 07:54:15;;;;;;;4.65;1.42;;;;;;;;;;5045981;28;20238;-81
2022/05/13 07:56:42;;;;;;;5.65;1.38;;;;;;;;;;5044258;28;20206;-81
2022/05/13 07:59:09;;;;;;;4.70;1.50;;;;;;;;;;5042298;28;20206;-81
2022/05/13 08:01:36;;;;;;;4.63;2.55;;;;;;;;;;5042140;28;20213;-81
2022/05/13 08:04:03;;;;;;;2.50;2.15;;;;;;;;;;5046151;28;20902;-81
2022/05/13 08:06:32;;;;;;;3.38;1.30;;;;;;;;;;5029025;28;20212;-81
2022/05/13 08:09:00;;;;;;;3.38;1.70;;;;;;;;;;5034394;28;20199;-80
2022/05/13 08:11:29;;;;;;;1.60;1.40;;;;;;;;;;5046492;28;20223;-81
2022/05/13 08:13:57;;;;;;;4.95;1.38;;;;;;;;;;5056359;28;20275;-82
2022/05/13 08:16:26;;;;;;;4.63;1.42;;;;;;;;;;5037560;28;20650;-81
2022/05/13 08:18:53;;;;;;;2.70;1.75;;;;;;;;;;5041806;28;20207;-81
2022/05/13 08:21:20;;;;;;;3.15;1.30;;;;;;;;;;5046564;28;20201;-82
2022/05/13 08:23:50;;;;;;;2.65;1.45;;;;;;;;;;5043790;28;20199;-81
2022/05/13 08:26:17;;;;;;;4.40;1.40;;;;;;;;;;5047615;28;20572;-82
2022/05/13 08:28:45;;;;;;;3.00;1.50;;;;;;;;;;5044469;28;20210;-82
2022/05/13 08:31:13;;;;;;;3.05;1.67;;;;;;;;;;5036726;28;20318;-81
2022/05/13 08:33:40;;;;;;;2.47;1.55;;;;;;;;;;5031891;28;20808;-81
2022/05/13 08:36:08;;;;;;;4.20;1.45;;;;;;;;;;5039275;28;20661;-81
2022/05/13 08:38:37;;;;;;;3.08;1.30;;;;;;;;;;5047843;28;20206;-80
2022/05/13 08:41:24;;;;;;;5.18;1.75;;;;;;;;;;5043777;28;20229;-82
2022/05/13 08:43:55;;;;;;;3.22;1.25;;;;;;;;;;5035287;28;20622;-81
2022/05/13 08:46:26;;;;;;;4.20;1.85;;;;;;;;;;5044927;28;20658;-82
2022/05/13 08:48:55;;;;;;;3.15;1.13;;;;;;;;;;5042344;28;20574;-82
2022/05/13 08:51:27;;;;;;;2.75;1.30;;;;;;;;;;5041166;28;20204;-81
2022/05/13 08:53:56;;;;;;;4.47;1.55;;;;;;;;;;5045940;28;20306;-85
2022/05/13 08:56:25;;;;;;;2.67;1.20;;;;;;;;;;5050422;28;20206;-81
2022/05/13 08:58:56;;;;;;;1.48;1.30;;;;;;;;;;5048173;28;20659;-81
2022/05/13 09:01:26;;;;;;;8.45;1.60;;;;;;;;;;5042568;28;20195;-82
2022/05/13 09:03:55;;;;;;;2.97;1.42;;;;;;;;;;5046930;28;20674;-80
2022/05/13 09:06:29;;;;;;;2.53;1.33;;;;;;;;;;5054767;28;20229;-83
2022/05/13 09:08:56;;;;;;;3.78;1.58;;;;;;;;;;5044607;28;20195;-79
2022/05/13 09:11:26;;;;;;;6.30;1.35;;;;;;;;;;5040833;28;20199;-79
2022/05/13 09:13:59;;;;;;;2.10;1.30;;;;;;;;;;5049603;28;20692;-81
2022/05/13 09:16:30;;;;;;;1.80;1.10;;;;;;;;;;5045313;28;20201;-79
2022/05/13 09:19:03;;;;;;;2.13;0.95;;;;;;;;;;5044277;28;20199;-84
2022/05/13 09:21:30;;;;;;;1.50;1.00;;;;;;;;;;5043708;28;20763;-82
2022/05/13 09:23:57;;;;;;;2.45;1.17;;;;;;;;;;5046786;28;20207;-82
2022/05/13 09:26:26;;;;;;;2.67;1.17;;;;;;;;;;5045479;28;20198;-82
2022/05/13 09:29:03;;;;;;;2.10;1.45;;;;;;;;;;5049144;28;20203;-80
2022/05/13 09:31:31;;;;;;;1.73;1.25;;;;;;;;;;5046278;28;20209;-80
2022/05/13 09:33:58;;;;;;;4.80;1.30;;;;;;;;;;5047799;28;20215;-79
2022/05/13 09:36:33;;;;;;;1.63;0.95;;;;;;;;;;5047635;28;20202;-80
2022/05/13 09:39:01;;;;;;;4.95;1.40;;;;;;;;;;5043780;28;20283;-79
2022/05/13 09:41:30;;;;;;;2.10;1.20;;;;;;;;;;5052595;28;20211;-80
2022/05/13 09:43:58;;;;;;;3.72;1.20;;;;;;;;;;5047682;28;20226;-81
2022/05/13 09:46:35;;;;;;;4.32;1.30;;;;;;;;;;5041073;28;20206;-80
2022/05/13 09:49:04;;;;;;;4.60;1.20;;;;;;;;;;5033935;28;20191;-83
2022/05/13 09:51:35;;;;;;;3.15;1.20;;;;;;;;;;5047890;28;20202;-81
2022/05/13 09:54:03;;;;;;;2.30;1.48;;;;;;;;;;5045372;28;20215;-82
2022/05/13 09:56:40;;;;;;;4.47;1.35;;;;;;;;;;5048242;28;20556;-81
2022/05/13 09:59:14;;;;;;;5.22;2.30;;;;;;;;;;5051746;28;20538;-79
2022/05/13 10:01:42;;;;;;;2.88;2.13;;;;;;;;;;5048647;28;20203;-84
2022/05/13 10:04:11;;;;;;;2.33;1.85;;;;;;;;;;5050722;28;20203;-81
2022/05/13 10:06:39;;;;;;;8.65;1.73;;;;;;;;;;5051648;28;20624;-81
2022/05/13 10:14:41;;;;;;;3.30;1.52;;;;;;;;;;5047587;28;20276;-85
2022/05/13 10:17:14;;;;;;;3.00;1.35;;;;;;;;;;5052282;28;20261;-81
2022/05/13 10:19:43;;;;;;;2.17;1.30;;;;;;;;;;5051829;28;20199;-83
2022/05/13 10:22:15;;;;;;;4.35;1.95;;;;;;;;;;5051320;28;20574;-80
2022/05/13 10:24:45;;;;;;;1.70;1.33;;;;;;;;;;5048790;28;20200;-80
2022/05/13 10:27:16;;;;;;;1.45;1.35;;;;;;;;;;5052042;28;20207;-81
2022/05/13 10:29:45;;;;;;;4.75;1.20;;;;;;;;;;5046248;28;20210;-80
2022/05/13 10:32:18;;;;;;;2.80;1.27;;;;;;;;;;5038082;28;20204;-80
2022/05/13 10:34:48;;;;;;;3.22;1.42;;;;;;;;;;5038626;28;20215;-81
2022/05/13 10:37:18;;;;;;;2.58;1.20;;;;;;;;;;5046181;28;20539;-79
2022/05/13 10:39:48;;;;;;;2.30;1.30;;;;;;;;;;5040305;28;20195;-79
2022/05/13 10:42:18;;;;;;;1.98;1.30;;;;;;;;;;5038656;28;20207;-82
2022/05/13 10:44:48;;;;;;;2.03;1.15;;;;;;;;;;5040123;28;20644;-80
2022/05/13 10:47:18;;;;;;;1.80;1.20;;;;;;;;;;5045511;28;20192;-81
2022/05/13 10:49:45;;;;;;;6.88;1.67;;;;;;;;;;5040766;28;20188;-81
2022/05/13 10:52:17;;;;;;;2.10;1.27;;;;;;;;;;5039977;28;20196;-82
2022/05/13 10:54:48;;;;;;;2.60;1.40;;;;;;;;;;5045950;28;20219;-80
2022/05/13 10:57:22;;;;;;;1.55;1.40;;;;;;;;;;5037328;28;20195;-80
2022/05/13 10:59:57;;;;;;;1.75;1.38;;;;;;;;;;5048295;28;20558;-82
2022/05/13 11:02:40;;;;;;;1.48;1.13;;;;;;;;;;5041985;28;20690;-81
2022/05/13 11:05:10;;;;;;;3.53;1.35;;;;;;;;;;5041374;28;20207;-82
2022/05/13 11:07:42;;;;;;;4.45;1.52;;;;;;;;;;5046496;28;20207;-81
2022/05/13 11:10:14;;;;;;;1.52;1.15;;;;;;;;;;5042246;28;20226;-83
2022/05/13 11:12:43;;;;;;;2.63;1.23;;;;;;;;;;5038346;28;20200;-81
2022/05/13 11:15:15;;;;;;;5.10;1.60;;;;;;;;;;5041909;28;20219;-80
2022/05/13 11:17:51;;;;;;;3.08;1.20;;;;;;;;;;5045496;28;20202;-82
2022/05/13 11:20:23;;;;;;;2.65;1.35;;;;;;;;;;5042681;28;20197;-83
2022/05/13 11:22:59;;;;;;;2.30;1.88;;;;;;;;;;5040200;28;20187;-81
2022/05/13 11:25:54;;;;;;;2.33;1.30;;;;;;;;;;5044854;28;20213;-82
2022/05/13 11:28:33;;;;;;;2.58;1.15;;;;;;;;;;5033514;28;20191;-81
2022/05/13 11:31:02;;;;;;;1.60;1.48;;;;;;;;;;5043576;28;20196;-80
2022/05/13 11:33:34;;;;;;;3.65;1.35;;;;;;;;;;5040529;28;20198;-80
2022/05/13 11:36:08;;;;;;;3.63;1.38;;;;;;;;;;5045146;28;20257;-81
2022/05/13 11:38:43;;;;;;;1.33;1.23;;;;;;;;;;5039225;28;20202;-81
2022/05/13 11:41:13;;;;;;;2.13;1.42;;;;;;;;;;5047054;28;20704;-85
2022/05/13 11:43:45;;;;;;;2.35;1.50;;;;;;;;;;5050601;28;20230;-83
2022/05/13 11:46:28;;;;;;;3.38;1.40;;;;;;;;;;5037042;28;20195;-82
2022/05/13 11:49:00;;;;;;;3.05;1.30;;;;;;;;;;5037463;28;20688;-81
2022/05/13 11:51:28;;;;;;;2.10;1.73;;;;;;;;;;5046829;28;20206;-81
2022/05/13 11:54:12;;;;;;;3.25;1.48;;;;;;;;;;5041687;28;20225;-81
2022/05/13 11:56:40;;;;;;;4.28;1.40;;;;;;;;;;5045331;28;20635;-80
2022/05/13 11:59:11;;;;;;;2.50;1.52;;;;;;;;;;5047499;28;20215;-82
2022/05/13 12:01:55;;;;;;;2.35;1.30;;;;;;;;;;5035528;28;20665;-82
2022/05/13 12:04:34;;;;;;;1.50;1.40;;;;;;;;;;5041435;28;20199;-82
2022/05/13 12:07:18;;;;;;;2.85;1.10;;;;;;;;;;5040359;28;20289;-82
2022/05/13 12:09:47;;;;;;;3.28;1.38;;;;;;;;;;5042701;28;20764;-82
2022/05/13 12:12:17;;;;;;;1.60;1.50;;;;;;;;;;5046515;28;20654;-82
2022/05/13 12:14:48;;;;;;;3.58;1.60;;;;;;;;;;5041790;28;20222;-82
2022/05/13 12:17:19;;;;;;;3.17;1.30;;;;;;;;;;5040464;28;20488;-81
2022/05/13 12:19:54;;;;;;;1.70;1.48;;;;;;;;;;5046787;28;20282;-82
2022/05/13 12:22:27;;;;;;;2.17;1.40;;;;;;;;;;5045111;28;20209;-83
2022/05/13 12:24:59;;;;;;;3.63;1.80;;;;;;;;;;5047287;28;20555;-82
2022/05/13 12:27:35;;;;;;;2.25;1.58;;;;;;;;;;5046643;28;20205;-82
2022/05/13 12:30:13;;;;;;;3.45;1.63;;;;;;;;;;5037616;28;20206;-83
2022/05/13 12:32:42;;;;;;;3.15;1.85;;;;;;;;;;5047688;28;20218;-82
2022/05/13 12:38:07;;;;;;;5.00;1.58;;;;;;;;;;5042128;28;20352;-81
2022/05/13 12:40:37;;;;;;;4.90;1.90;;;;;;;;;;5046042;28;20218;-81
2022/05/13 12:43:14;;;;;;;2.03;1.35;;;;;;;;;;5039360;28;20788;-82
2022/05/13 12:45:45;;;;;;;6.45;2.15;;;;;;;;;;5047152;28;20272;-81
2022/05/13 12:48:14;;;;;;;1.83;1.40;;;;;;;;;;5038889;28;20552;-82
2022/05/13 12:50:44;;;;;;;1.80;1.70;;;;;;;;;;5028517;28;20663;-81
2022/05/13 12:53:30;;;;;;;1.52;1.42;;;;;;;;;;5041416;28;20566;-83
2022/05/13 12:55:57;;;;;;;2.53;1.90;;;;;;;;;;5045005;28;20697;-84
2022/05/13 12:58:25;;;;;;;3.90;1.45;;;;;;;;;;5046764;28;20574;-84
2022/05/13 13:00:53;;;;;;;3.05;1.52;;;;;;;;;;5046060;28;20578;-83
2022/05/13 13:03:22;;;;;;;2.95;1.35;;;;;;;;;;5038676;28;20195;-83
2022/05/13 13:05:57;;;;;;;1.65;1.55;;;;;;;;;;5040900;28;20293;-81
2022/05/13 13:08:26;;;;;;;1.92;1.60;;;;;;;;;;5044514;28;20244;-83
2022/05/13 13:10:55;;;;;;;2.40;1.90;;;;;;;;;;5043622;28;20226;-84
2022/05/13 13:13:25;;;;;;;3.15;1.90;;;;;;;;;;5045555;28;20202;-82
2022/05/13 13:15:55;;;;;;;4.93;1.52;;;;;;;;;;5045465;28;20728;-82
2022/05/13 13:18:30;;;;;;;4.28;1.38;;;;;;;;;;5042281;28;20199;-82
2022/05/13 13:21:00;;;;;;;2.95;2.10;;;;;;;;;;5047944;28;20198;-85
2022/05/13 13:23:29;;;;;;;1.77;1.40;;;;;;;;;;5042173;28;20207;-85
2022/05/13 13:25:58;;;;;;;2.58;1.80;;;;;;;;;;5032502;28;20208;-82
2022/05/13 13:28:26;;;;;;;4.90;1.80;;;;;;;;;;5029138;28;20630;-81
2022/05/13 13:30:55;;;;;;;2.42;1.95;;;;;;;;;;5039295;28;20203;-83
2022/05/13 13:33:22;;;;;;;1.85;1.30;;;;;;;;;;5042373;28;20274;-83
2022/05/13 13:35:49;;;;;;;4.95;1.80;;;;;;;;;;5035844;28;20215;-84
2022/05/13 13:38:19;;;;;;;4.45;1.65;;;;;;;;;;5041908;28;20199;-85
2022/05/13 13:40:49;;;;;;;3.85;2.10;;;;;;;;;;5046978;28;20551;-83
2022/05/13 13:43:18;;;;;;;2.45;1.63;;;;;;;;;;5050021;28;20240;-83
2022/05/13 13:45:48;;;;;;;3.80;1.95;;;;;;;;;;5048278;28;20222;-82
2022/05/13 13:48:20;;;;;;;3.08;1.70;;;;;;;;;;5051732;28;20672;-82
2022/05/13 13:50:50;;;;;;;2.97;2.53;;;;;;;;;;5039375;28;20204;-81
2022/05/13 13:53:20;;;;;;;1.80;1.70;;;;;;;;;;5037827;28;20222;-81
2022/05/13 13:55:50;;;;;;;2.58;1.95;;;;;;;;;;5048785;28;20690;-82
2022/05/13 13:58:22;;;;;;;5.15;1.60;;;;;;;;;;5051552;28;20210;-84
2022/05/13 14:00:50;;;;;;;1.67;1.42;;;;;;;;;;5041752;28;20199;-81
2022/05/13 14:03:18;;;;;;;2.42;1.90;;;;;;;;;;5050083;28;20666;-82
2022/05/13 14:05:50;;;;;;;3.50;1.67;;;;;;;;;;5040887;28;20200;-82
2022/05/13 14:08:18;;;;;;;2.75;1.55;;;;;;;;;;5043301;28;20199;-82
2022/05/13 14:10:48;;;;;;;4.43;1.90;;;;;;;;;;5042054;28;20207;-83
2022/05/13 14:13:16;;;;;;;2.70;1.83;;;;;;;;;;5048418;28;20203;-82
2022/05/13 14:15:45;;;;;;;5.88;2.97;;;;;;;;;;5046156;28;20226;-81
2022/05/13 14:18:18;;;;;;;3.80;2.40;;;;;;;;;;5048906;28;20202;-82
2022/05/13 14:20:45;;;;;;;3.53;1.80;;;;;;;;;;5050546;28;20544;-83
2022/05/13 14:23:15;;;;;;;2.65;2.20;;;;;;;;;;5046056;28;20199;-83
2022/05/13 14:25:46;;;;;;;2.65;2.42;;;;;;;;;;5044211;28;20578;-85
2022/05/13 14:28:15;;;;;;;4.03;1.98;;;;;;;;;;5048899;28;20203;-83
2022/05/13 14:30:45;;;;;;;3.75;2.35;;;;;;;;;;5034213;28;20203;-84
2022/05/13 14:33:12;;;;;;;2.88;2.10;;;;;;;;;;5036352;28;20192;-84
2022/05/13 14:35:39;;;;;;;3.20;2.50;;;;;;;;;;5045526;28;20579;-84
2022/05/13 14:38:07;;;;;;;2.33;2.13;;;;;;;;;;5047820;28;20199;-83
2022/05/13 14:40:37;;;;;;;2.75;1.90;;;;;;;;;;5046530;28;20203;-82
2022/05/13 14:43:05;;;;;;;4.38;2.40;;;;;;;;;;5047144;28;20215;-84
2022/05/13 14:45:35;;;;;;;2.42;2.22;;;;;;;;;;5044307;28;20256;-83
2022/05/13 14:48:14;;;;;;;2.58;2.00;;;;;;;;;;5030625;28;20204;-82
2022/05/13 14:50:42;;;;;;;3.30;1.92;;;;;;;;;;5036917;28;20658;-83
2022/05/13 14:53:12;;;;;;;2.90;2.45;;;;;;;;;;5044576;28;20203;-83
2022/05/13 14:55:42;;;;;;;3.90;2.40;;;;;;;;;;5038416;28;20258;-83
2022/05/13 14:58:14;;;;;;;2.08;1.88;;;;;;;;;;5048815;28;20214;-82
2022/05/13 15:00:47;;;;;;;2.90;2.70;;;;;;;;;;5043014;28;20200;-82
2022/05/13 15:03:15;;;;;;;2.40;2.20;;;;;;;;;;5049541;28;20191;-82
2022/05/13 15:05:44;;;;;;;2.58;2.38;;;;;;;;;;5044175;28;20231;-81
2022/05/13 15:08:30;;;;;;;2.50;2.30;;;;;;;;;;5040746;28;20203;-81
2022/05/13 15:10:57;;;;;;;3.72;2.80;;;;;;;;;;5039737;28;20203;-81
2022/05/13 15:13:25;;;;;;;5.05;2.67;;;;;;;;;;5035306;28;20203;-82
2022/05/13 15:15:55;;;;;;;2.35;2.15;;;;;;;;;;5043376;28;20215;-82
2022/05/13 15:18:24;;;;;;;3.03;2.83;;;;;;;;;;5047848;28;20672;-82
2022/05/13 15:20:51;;;;;;;2.58;2.38;;;;;;;;;;5049283;28;20213;-83